createdAt,value
2022-12-22T00:00:54.052Z,1.50
2022-12-22T00:06:14.406Z,1.50
2022-12-22T00:11:34.861Z,1.50
2022-12-22T00:16:56.953Z,1.50
2022-12-22T00:22:23.482Z,1.50
2022-12-22T00:27:48.841Z,1.50
2022-12-22T00:33:09.437Z,1.60
2022-12-22T00:38:35.637Z,1.60
2022-12-22T00:43:55.860Z,1.60
2022-12-22T00:49:16.750Z,1.60
2022-12-22T00:54:38.596Z,1.60
2022-12-22T00:59:59.218Z,1.60
2022-12-22T01:05:19.618Z,1.60
2022-12-22T01:10:42.783Z,1.70
2022-12-22T01:16:03.428Z,1.60
2022-12-22T01:21:23.695Z,1.60
2022-12-22T01:26:44.133Z,1.60
2022-12-22T01:32:04.615Z,1.60
2022-12-22T01:37:24.977Z,1.60
2022-12-22T01:42:46.120Z,1.60
2022-12-22T01:48:06.376Z,1.60
2022-12-22T01:53:30.849Z,1.70
2022-12-22T01:58:57.290Z,1.70
2022-12-22T02:04:18.817Z,1.70
2022-12-22T02:10:03.313Z,1.70
2022-12-22T02:15:36.209Z,1.70
2022-12-22T02:21:06.992Z,1.70
2022-12-22T02:26:46.113Z,1.60
2022-12-22T02:32:06.344Z,1.60
2022-12-22T02:37:31.726Z,1.60
2022-12-22T02:43:43.624Z,1.60
2022-12-22T02:49:18.548Z,1.50
2022-12-22T02:54:40.701Z,1.40
2022-12-22T03:00:01.022Z,1.40
2022-12-22T03:05:21.307Z,1.40
2022-12-22T03:10:41.625Z,1.50
2022-12-22T03:16:01.932Z,1.40
2022-12-22T03:21:22.367Z,1.40
2022-12-22T03:26:24.390Z,1.40
2022-12-22T03:31:26.177Z,1.40
2022-12-22T03:36:27.914Z,1.40
2022-12-22T03:41:48.150Z,1.40
2022-12-22T03:46:49.917Z,1.50
2022-12-22T03:51:52.665Z,1.50
2022-12-22T03:56:54.443Z,1.60
2022-12-22T04:01:56.378Z,1.50
2022-12-22T04:06:58.746Z,1.50
2022-12-22T04:12:19.070Z,1.60
2022-12-22T04:17:20.817Z,1.60
2022-12-22T04:22:22.571Z,1.60
2022-12-22T04:27:24.322Z,1.60
2022-12-22T04:32:26.049Z,1.60
2022-12-22T04:37:27.871Z,1.60
2022-12-22T04:42:30.058Z,1.70
2022-12-22T04:47:31.774Z,1.70
2022-12-22T04:52:33.526Z,1.70
2022-12-22T04:57:40.427Z,1.70
2022-12-22T05:02:42.980Z,1.70
2022-12-22T05:07:44.822Z,1.70
2022-12-22T05:12:55.274Z,1.80
2022-12-22T05:17:58.554Z,1.90
2022-12-22T05:23:00.269Z,1.80
2022-12-22T05:28:02.062Z,1.90
2022-12-22T05:33:03.889Z,1.90
2022-12-22T05:38:05.601Z,1.90
2022-12-22T05:43:07.429Z,1.90
2022-12-22T05:48:09.161Z,1.90
2022-12-22T05:53:10.979Z,2.00
2022-12-22T05:58:12.689Z,2.00
2022-12-22T06:03:14.646Z,2.00
2022-12-22T06:08:16.429Z,2.00
2022-12-22T06:13:18.299Z,2.10
2022-12-22T06:18:20.190Z,2.10
2022-12-22T06:23:22.514Z,2.10
2022-12-22T06:28:25.111Z,2.10
2022-12-22T06:33:26.982Z,2.10
2022-12-22T06:38:28.838Z,2.20
2022-12-22T06:43:30.604Z,2.10
2022-12-22T06:48:32.370Z,2.20
2022-12-22T06:53:34.147Z,2.20
2022-12-22T06:58:35.927Z,2.20
2022-12-22T07:03:38.772Z,2.30
2022-12-22T07:08:40.502Z,2.30
2022-12-22T07:13:42.678Z,2.20
2022-12-22T07:18:44.514Z,2.20
2022-12-22T07:23:46.335Z,2.20
2022-12-22T07:28:48.111Z,2.20
2022-12-22T07:33:49.966Z,2.20
2022-12-22T07:38:52.109Z,2.30
2022-12-22T07:43:55.145Z,2.30
2022-12-22T07:49:15.525Z,2.40
2022-12-22T07:54:17.495Z,2.50
2022-12-22T07:59:19.992Z,2.50
2022-12-22T08:04:22.525Z,2.60
2022-12-22T08:09:24.548Z,2.60
2022-12-22T08:14:26.305Z,2.60
2022-12-22T08:19:28.040Z,2.50
2022-12-22T08:24:30.213Z,2.50
2022-12-22T08:29:40.039Z,2.50
2022-12-22T08:34:42.410Z,2.50
2022-12-22T08:39:46.341Z,2.60
2022-12-22T08:44:53.082Z,2.70
2022-12-22T08:49:54.963Z,2.70
2022-12-22T08:54:56.698Z,2.70
2022-12-22T08:59:58.589Z,2.70
2022-12-22T09:05:00.401Z,2.70
2022-12-22T09:10:02.161Z,2.80
2022-12-22T09:15:04.161Z,3.00
2022-12-22T09:20:06.646Z,3.20
2022-12-22T09:25:08.945Z,3.30
2022-12-22T09:30:11.170Z,3.30
2022-12-22T09:35:12.944Z,3.30
2022-12-22T09:40:14.817Z,3.30
2022-12-22T09:45:20.181Z,3.30
2022-12-22T09:50:25.477Z,3.30
2022-12-22T09:55:43.772Z,3.30
2022-12-22T10:00:50.865Z,3.40
2022-12-22T10:06:05.928Z,3.40
2022-12-22T10:11:12.279Z,3.60
2022-12-22T10:16:22.863Z,3.60
2022-12-22T10:21:25.019Z,3.70
2022-12-22T10:26:32.175Z,3.80
2022-12-22T10:31:36.154Z,4.00
2022-12-22T10:36:38.764Z,4.10
2022-12-22T10:41:44.700Z,4.20
2022-12-22T10:46:58.853Z,4.40
2022-12-22T10:52:25.598Z,4.50
2022-12-22T10:57:31.659Z,4.70
2022-12-22T11:02:38.892Z,4.90
2022-12-22T11:07:43.012Z,4.90
2022-12-22T11:12:57.226Z,4.90
2022-12-22T11:18:16.973Z,4.90
2022-12-22T11:23:53.113Z,4.90
2022-12-22T11:29:33.072Z,4.80
2022-12-22T11:35:12.100Z,4.70
2022-12-22T11:40:46.665Z,4.60
2022-12-22T11:46:10.066Z,4.60
2022-12-22T11:51:29.930Z,4.50
2022-12-22T11:56:45.031Z,4.40
2022-12-22T12:02:08.230Z,4.50
2022-12-22T12:07:29.651Z,4.50
2022-12-22T12:12:57.181Z,4.60
2022-12-22T12:18:07.766Z,4.50
2022-12-22T12:23:22.849Z,4.50
2022-12-22T12:28:58.462Z,4.40
2022-12-22T12:34:02.053Z,4.40
2022-12-22T12:39:36.169Z,4.30
2022-12-22T12:44:38.965Z,4.30
2022-12-22T12:50:02.861Z,4.20
2022-12-22T12:55:54.290Z,4.10
2022-12-22T13:00:58.973Z,4.10
2022-12-22T13:06:03.753Z,4.10
2022-12-22T13:11:08.507Z,4.10
2022-12-22T13:16:16.329Z,4.10
2022-12-22T13:26:49.190Z,4.20
2022-12-22T13:32:03.590Z,4.20
2022-12-22T13:37:23.836Z,4.20
2022-12-22T13:42:25.855Z,4.10
2022-12-22T13:47:27.926Z,4.10
2022-12-22T13:52:30.025Z,4.10
2022-12-22T13:57:31.973Z,4.10
2022-12-22T14:02:33.812Z,4.00
2022-12-22T14:07:35.644Z,4.00
2022-12-22T14:12:44.517Z,4.00
2022-12-22T14:17:52.532Z,4.00
2022-12-22T14:23:04.521Z,4.00
2022-12-22T14:28:28.137Z,4.00
2022-12-22T14:33:35.305Z,3.90
2022-12-22T14:38:43.562Z,3.90
2022-12-22T14:43:49.236Z,4.00
2022-12-22T14:48:51.093Z,4.00
2022-12-22T14:54:02.833Z,4.00
2022-12-22T14:59:11.615Z,4.00
2022-12-22T15:04:20.180Z,4.10
2022-12-22T15:09:39.965Z,4.00
2022-12-22T15:14:47.637Z,4.00
2022-12-22T15:19:51.145Z,4.00
2022-12-22T15:24:52.881Z,4.10
2022-12-22T15:29:54.613Z,4.30
2022-12-22T15:34:56.352Z,4.10
2022-12-22T15:39:58.139Z,4.20
2022-12-22T15:44:59.900Z,4.20
2022-12-22T15:50:02.248Z,4.20
2022-12-22T15:55:04.241Z,4.20
2022-12-22T16:00:06.818Z,4.30
2022-12-22T16:05:10.289Z,4.60
2022-12-22T16:10:26.848Z,4.80
2022-12-22T16:15:35.084Z,5.10
2022-12-22T16:20:39.941Z,5.10
2022-12-22T16:25:44.514Z,5.10
2022-12-22T16:30:46.591Z,5.20
2022-12-22T16:35:48.580Z,5.30
2022-12-22T16:40:53.144Z,5.20
2022-12-22T16:45:55.178Z,5.30
2022-12-22T16:50:56.952Z,5.30
2022-12-22T16:56:01.668Z,5.30
2022-12-22T17:01:03.430Z,5.40
2022-12-22T17:06:05.825Z,5.40
2022-12-22T17:11:11.431Z,5.50
2022-12-22T17:16:21.604Z,5.50
2022-12-22T17:21:24.383Z,5.40
2022-12-22T17:26:26.326Z,5.40
2022-12-22T17:31:28.365Z,5.30
2022-12-22T17:36:37.929Z,5.40
2022-12-22T17:41:40.103Z,5.40
2022-12-22T17:46:42.181Z,5.40
2022-12-22T17:51:43.990Z,5.50
2022-12-22T17:56:45.786Z,5.60
2022-12-22T18:01:48.769Z,5.60
2022-12-22T18:06:50.734Z,5.60
2022-12-22T18:11:53.741Z,5.60
2022-12-22T18:16:55.580Z,5.60
2022-12-22T18:21:57.370Z,5.60
2022-12-22T18:27:00.888Z,5.60
2022-12-22T18:32:02.784Z,5.60
2022-12-22T18:37:11.261Z,5.70
2022-12-22T18:42:22.407Z,5.60
2022-12-22T18:47:24.229Z,5.60
2022-12-22T18:52:26.119Z,5.70
2022-12-22T18:57:28.033Z,5.60
2022-12-22T19:02:30.448Z,5.60
2022-12-22T19:07:32.317Z,5.60
2022-12-22T19:12:34.398Z,5.60
2022-12-22T19:17:36.275Z,5.50
2022-12-22T19:22:38.086Z,5.60
2022-12-22T19:27:40.041Z,5.60
2022-12-22T19:32:48.097Z,5.70
2022-12-22T19:37:52.102Z,5.60
2022-12-22T19:42:56.359Z,5.60
2022-12-22T19:47:58.167Z,5.50
2022-12-22T19:53:00.025Z,5.40
2022-12-22T19:58:02.435Z,5.30
2022-12-22T20:03:05.989Z,5.20
2022-12-22T20:08:08.151Z,5.20
2022-12-22T20:13:19.150Z,5.10
2022-12-22T20:18:28.385Z,5.10
2022-12-22T20:23:33.640Z,5.00
2022-12-22T20:28:37.929Z,5.00
2022-12-22T20:33:40.411Z,5.00
2022-12-22T20:38:42.709Z,4.90
2022-12-22T20:43:44.953Z,5.00
2022-12-22T20:49:08.459Z,4.90
2022-12-22T20:54:14.802Z,4.90
2022-12-22T20:59:20.309Z,4.80
2022-12-22T21:04:22.363Z,4.70
2022-12-22T21:09:24.584Z,4.60
2022-12-22T21:14:27.813Z,4.60
2022-12-22T21:19:29.602Z,4.60
2022-12-22T21:24:31.342Z,4.60
2022-12-22T21:29:33.104Z,4.70
2022-12-22T21:34:34.979Z,4.70
2022-12-22T21:39:44.591Z,4.80
2022-12-22T21:44:46.523Z,4.70
2022-12-22T21:49:48.849Z,4.60
2022-12-22T21:54:50.618Z,4.50
2022-12-22T21:59:52.665Z,4.40
2022-12-22T22:04:55.463Z,4.40
2022-12-22T22:09:57.357Z,4.50
2022-12-22T22:15:03.228Z,4.40
2022-12-22T22:20:08.405Z,4.40
2022-12-22T22:25:11.993Z,4.40
2022-12-22T22:30:24.703Z,4.40
2022-12-22T22:35:26.805Z,4.40
2022-12-22T22:40:28.632Z,4.50
2022-12-22T22:45:30.722Z,4.50
2022-12-22T22:50:32.491Z,4.50
2022-12-22T22:55:34.279Z,4.50
2022-12-22T23:00:36.146Z,4.50
2022-12-22T23:05:38.146Z,4.40
2022-12-22T23:10:41.790Z,4.40
2022-12-22T23:15:53.694Z,4.40
2022-12-22T23:20:59.888Z,4.40
2022-12-22T23:26:01.758Z,4.40
2022-12-22T23:31:03.655Z,4.40
2022-12-22T23:36:05.749Z,4.40
2022-12-22T23:41:11.660Z,4.40
2022-12-22T23:46:16.352Z,4.50
2022-12-22T23:51:18.512Z,4.40
2022-12-22T23:56:20.417Z,4.40
